Data for 11/15/2014

Time Sea-Level Adjusted Pressure Absolute Pressure Temperature Relative Humidity Dew Point   
(mb) (inHg) (mb) (inHg) (C) (F) (%) (C) (F)
00:05 1018 30.06 848 25.04 -14 6.8 83 -16.3 2.6
00:10 1018 30.06 848 25.04 -14 6.7 82 -16.5 2.3
00:15 1019 30.09 848 25.04 -14.1 6.6 82 -16.5 2.2
00:20 1019 30.09 848 25.04 -14.2 6.5 83 -16.5 2.3
00:25 1019 30.09 848 25.04 -14.2 6.4 82 -16.6 2.1
00:30 1019 30.09 848 25.04 -14.3 6.3 84 -16.5 2.4
00:35 1019 30.09 848 25.04 -14.2 6.4 84 -16.4 2.4
00:40 1019 30.09 848 25.04 -14.3 6.3 84 -16.4 2.4
00:45 1019 30.09 848 25.04 -14.3 6.3 83 -16.5 2.2
00:50 1019 30.09 848 25.04 -14.4 6.1 84 -16.4 2.4
00:55 1019 30.09 848 25.04 -14.3 6.3 84 -16.4 2.5
01:00 1019 30.09 848 25.04 -14.4 6.1 83 -16.6 2.1
01:05 1019 30.09 848 25.04 -14.7 5.6 82 -17.1 1.3
01:10 1019 30.09 848 25.04 -14.9 5.1 83 -17.2 1
01:15 1019 30.09 848 25.04 -15 5 82 -17.4 0.7
01:20 1019 30.09 848 25.04 -15.1 4.9 82 -17.5 0.5
01:25 1019 30.09 848 25.04 -15.1 4.9 81 -17.6 0.3
01:30 1019 30.09 849 25.07 -15.2 4.6 82 -17.7 0.1
01:35 1019 30.09 849 25.07 -15.2 4.6 82 -17.7 0.2
01:40 1020 30.12 849 25.07 -15.3 4.5 82 -17.7 0.1
01:45 1020 30.12 849 25.07 -15.3 4.4 81 -17.8 -0.1
01:50 1020 30.12 849 25.07 -15.4 4.3 82 -17.9 -0.2
01:55 1020 30.12 849 25.07 -15.4 4.4 82 -17.8 -0.1
02:00 1020 30.12 849 25.07 -15.4 4.4 82 -17.8 -0.1
02:05 1020 30.12 849 25.07 -15.3 4.4 81 -17.8 -0.1
02:10 1020 30.12 849 25.07 -15.3 4.4 81 -17.8 -0.1
02:15 1020 30.12 849 25.07 -15.3 4.5 80 -18 -0.4
02:20 1020 30.12 849 25.07 -15.3 4.4 81 -18 -0.3
02:25 1020 30.12 849 25.07 -15.3 4.4 80 -18 -0.5
02:30 1020 30.12 849 25.07 -15.3 4.4 79 -18.1 -0.6
02:35 1020 30.12 849 25.07 -15.3 4.4 79 -18.1 -0.7
02:40 1020 30.12 849 25.07 -15.4 4.4 80 -18.1 -0.6
02:45 1020 30.12 849 25.07 -15.4 4.3 79 -18.2 -0.8
02:50 1020 30.12 849 25.07 -15.5 4.1 79 -18.3 -1
02:55 1020 30.12 849 25.07 -15.6 4 79 -18.4 -1.1
03:00 1020 30.12 849 25.07 -15.5 4.1 79 -18.4 -1.1
03:05 1020 30.12 850 25.1 -15.7 3.8 79 -18.5 -1.4
03:10 1020 30.12 850 25.1 -15.8 3.7 78 -18.7 -1.7
03:15 1020 30.12 850 25.1 -15.8 3.6 79 -18.7 -1.6
03:20 1020 30.12 850 25.1 -15.8 3.6 78 -18.7 -1.7
03:25 1021 30.15 850 25.1 -15.8 3.6 78 -18.8 -1.9
03:30 1021 30.15 850 25.1 -15.9 3.4 78 -18.9 -2.1
03:35 1021 30.15 850 25.1 -15.9 3.3 78 -19 -2.2
03:40 1021 30.15 850 25.1 -16 3.2 78 -19 -2.3
03:45 1021 30.15 850 25.1 -16.1 3.1 78 -19 -2.3
03:50 1021 30.15 850 25.1 -16.1 3 78 -19.1 -2.3
03:55 1021 30.15 850 25.1 -16.2 2.8 78 -19.2 -2.5
04:00 1021 30.15 850 25.1 -16.5 2.3 79 -19.4 -2.8
04:05 1021 30.15 850 25.1 -16.8 1.9 80 -19.5 -3
04:10 1021 30.15 850 25.1 -16.8 1.7 79 -19.6 -3.4
04:15 1021 30.15 850 25.1 -16.9 1.6 80 -19.6 -3.4
04:20 1021 30.15 850 25.1 -17 1.5 79 -19.7 -3.5
04:25 1021 30.15 850 25.1 -17 1.5 79 -19.8 -3.6
04:30 1021 30.15 850 25.1 -17.1 1.3 79 -19.8 -3.7
04:35 1021 30.15 850 25.1 -17.2 1.1 79 -20 -3.9
04:40 1021 30.15 850 25.1 -17.2 1 79 -20 -3.9
04:45 1021 30.15 850 25.1 -17.2 1 79 -20 -4.1
04:50 1021 30.15 851 25.13 -17.3 0.8 79 -20.1 -4.2
04:55 1021 30.15 851 25.13 -17.4 0.7 79 -20.2 -4.4
05:00 1021 30.15 851 25.13 -17.6 0.4 80 -20.2 -4.4
05:05 1021 30.15 851 25.13 -17.7 0.1 81 -20.3 -4.6
05:10 1021 30.15 851 25.13 -18 -0.4 80 -20.6 -5.1
05:15 1021 30.15 851 25.13 -18.2 -0.8 80 -20.8 -5.5
05:20 1022 30.18 851 25.13 -18.4 -1.1 81 -20.9 -5.7
05:25 1022 30.18 851 25.13 -18.3 -0.9 81 -20.8 -5.4
05:30 1022 30.18 851 25.13 -18 -0.4 81 -20.6 -5.1
05:35 1022 30.18 851 25.13 -17.9 -0.1 80 -20.5 -5
05:40 1022 30.18 851 25.13 -17.8 -0.1 80 -20.6 -5
05:45 1022 30.18 851 25.13 -17.8 -0 79 -20.6 -5.1
05:50 1022 30.18 851 25.13 -17.9 -0.3 78 -20.8 -5.5
05:55 1022 30.18 851 25.13 -18 -0.4 79 -20.9 -5.6
06:00 1022 30.18 851 25.13 -17.9 -0.3 78 -20.9 -5.5
06:05 1022 30.18 851 25.13 -17.8 -0 79 -20.7 -5.2
06:10 1022 30.18 851 25.13 -17.5 0.5 78 -20.4 -4.7
06:15 1022 30.18 852 25.16 -17.3 0.8 78 -20.3 -4.5
06:20 1022 30.18 852 25.16 -17.3 0.9 77 -20.3 -4.6
06:25 1022 30.18 852 25.16 -17.3 0.9 76 -20.6 -5
06:30 1023 30.21 852 25.16 -17.7 0.2 76 -20.9 -5.6
06:35 1023 30.21 852 25.16 -17.9 -0.2 76 -21.1 -6
06:40 1023 30.21 852 25.16 -18 -0.5 77 -21.2 -6.2
06:45 1023 30.21 852 25.16 -18.2 -0.7 77 -21.2 -6.2
06:50 1023 30.21 852 25.16 -18.2 -0.8 77 -21.3 -6.4
06:55 1023 30.21 852 25.16 -18.4 -1 77 -21.5 -6.7
07:00 1023 30.21 852 25.16 -18.5 -1.4 77 -21.7 -7
07:05 1023 30.21 852 25.16 -18.8 -1.8 78 -21.8 -7.2
07:10 1023 30.21 852 25.16 -18.8 -1.8 78 -21.6 -6.9
07:15 1023 30.21 852 25.16 -18.6 -1.6 77 -21.7 -7
07:20 1023 30.21 852 25.16 -18.8 -1.8 78 -21.7 -7
07:25 1023 30.21 852 25.16 -18.8 -1.8 79 -21.6 -6.8
07:30 1023 30.21 852 25.16 -18.7 -1.7 80 -21.4 -6.5
07:35 1023 30.21 852 25.16 -18.6 -1.4 79 -21.3 -6.4
07:40 1023 30.21 852 25.16 -18.5 -1.3 80 -21.1 -6
07:45 1023 30.21 853 25.19 -18.3 -0.9 80 -20.8 -5.5
07:50 1023 30.21 853 25.19 -18.1 -0.5 79 -20.8 -5.5
07:55 1024 30.24 853 25.19 -18 -0.4 78 -20.9 -5.6
08:00 1024 30.24 853 25.19 -18 -0.4 79 -20.8 -5.4
08:05 1024 30.24 853 25.19 -17.7 0.1 79 -20.5 -5
08:10 1024 30.24 853 25.19 -17.5 0.5 77 -20.6 -5.1
08:15 1024 30.24 853 25.19 -17.6 0.4 78 -20.5 -5
08:20 1024 30.24 853 25.19 -17.7 0.2 78 -20.7 -5.3
08:25 1024 30.24 853 25.19 -17.7 0.2 79 -20.6 -5
08:30 1024 30.24 853 25.19 -17.6 0.3 78 -20.6 -5.1
08:35 1024 30.24 853 25.19 -17.7 0.2 78 -20.6 -5.1
08:40 1024 30.24 853 25.19 -17.7 0.2 78 -20.6 -5.1
08:45 1024 30.24 853 25.19 -17.6 0.4 78 -20.6 -5
08:50 1024 30.24 853 25.19 -17.5 0.5 77 -20.6 -5.2
08:55 1024 30.24 853 25.19 -17.4 0.6 76 -20.7 -5.2
09:00 1024 30.24 853 25.19 -17.4 0.8 77 -20.6 -5
09:05 1024 30.24 853 25.19 -17.3 0.9 76 -20.5 -4.9
09:10 1024 30.24 853 25.19 -17.3 0.9 78 -20.3 -4.6
09:15 1024 30.24 853 25.19 -17.2 1 77 -20.3 -4.5
09:20 1024 30.24 853 25.19 -17.1 1.3 76 -20.4 -4.7
09:25 1024 30.24 854 25.22 -17.1 1.2 76 -20.5 -4.8
09:30 1024 30.24 854 25.22 -17 1.3 74 -20.6 -5.1
09:35 1024 30.24 854 25.22 -17.1 1.2 74 -20.7 -5.3
09:40 1024 30.24 854 25.22 -17.2 1 73 -20.9 -5.6
09:45 1025 30.27 854 25.22 -17.2 1 73 -21 -5.8
09:50 1025 30.27 854 25.22 -16.9 1.5 71 -21 -5.7
09:55 1025 30.27 854 25.22 -16.5 2.3 71 -20.7 -5.2
10:00 1025 30.27 854 25.22 -16.7 1.9 72 -20.7 -5.2
10:05 1025 30.27 854 25.22 -16.7 2 71 -20.8 -5.4
10:10 1025 30.27 854 25.22 -16.5 2.4 70 -20.8 -5.4
10:15 1025 30.27 854 25.22 -16.2 2.8 70 -20.5 -4.9
10:20 1025 30.27 854 25.22 -15.7 3.7 68 -20.3 -4.5
10:25 1025 30.27 854 25.22 -14.9 5.2 65 -20.2 -4.3
10:30 1025 30.27 854 25.22 -14.9 5.3 66 -19.9 -3.8
10:35 1025 30.27 854 25.22 -14.9 5.1 65 -20.1 -4.2
10:40 1025 30.27 854 25.22 -15.2 4.6 67 -20.1 -4.1
10:45 1025 30.27 854 25.22 -15.4 4.4 66 -20.3 -4.6
10:50 1025 30.27 854 25.22 -15.2 4.7 66 -20.1 -4.2
10:55 1025 30.27 854 25.22 -15.1 4.9 64 -20.4 -4.6
11:00 1025 30.27 854 25.22 -14.6 5.8 63 -20.1 -4.3
11:05 1025 30.27 855 25.25 -14.4 6.2 62 -20.1 -4.1
11:10 1025 30.27 855 25.25 -14.9 5.2 64 -20.2 -4.3
11:15 1025 30.27 855 25.25 -15.1 4.9 65 -20.2 -4.4
11:20 1025 30.27 855 25.25 -14.4 6 63 -20 -4
11:25 1025 30.27 855 25.25 -14.3 6.3 62 -20.1 -4.1
11:30 1025 30.27 855 25.25 -14 6.9 61 -19.9 -3.9
11:35 1025 30.27 855 25.25 -13.9 7.1 60 -20 -4
11:40 1025 30.27 855 25.25 -13.6 7.5 60 -19.7 -3.5
11:45 1025 30.27 855 25.25 -13.6 7.6 60 -19.8 -3.7
11:50 1025 30.27 855 25.25 -13.9 7 61 -20 -4
11:55 1025 30.27 855 25.25 -13.9 7 61 -20 -4
12:00 1025 30.27 855 25.25 -13.5 7.8 58 -20.1 -4.3
12:05 1025 30.27 855 25.25 -13.3 8 59 -19.8 -3.7
12:10 1025 30.27 854 25.22 -13.2 8.3 58 -19.8 -3.6
12:15 1025 30.27 854 25.22 -13.5 7.6 59 -19.9 -3.8
12:20 1025 30.27 854 25.22 -13.9 7 59 -20.3 -4.5
12:25 1025 30.27 854 25.22 -13.7 7.3 60 -19.9 -3.8
12:30 1025 30.27 854 25.22 -13.3 8 57 -20.1 -4.1
12:35 1025 30.27 854 25.22 -13.7 7.4 60 -19.9 -3.8
12:40 1025 30.27 854 25.22 -13.2 8.2 58 -19.9 -3.8
12:45 1025 30.27 854 25.22 -13 8.7 55 -20.3 -4.5
12:50 1025 30.27 854 25.22 -12.9 8.9 55 -20.1 -4.1
12:55 1025 30.27 854 25.22 -12.8 9 57 -19.6 -3.3
13:00 1025 30.27 854 25.22 -12.2 10.1 54 -19.7 -3.4
13:05 1025 30.27 854 25.22 -12.5 9.6 58 -19.2 -2.5
13:10 1025 30.27 854 25.22 -12.7 9.2 55 -19.9 -3.9
13:15 1025 30.27 854 25.22 -12.1 10.2 56 -19.2 -2.5
13:20 1025 30.27 854 25.22 -12.3 9.8 56 -19.3 -2.8
13:25 1025 30.27 854 25.22 -12.1 10.3 52 -20 -4
13:30 1025 30.27 854 25.22 -11.8 10.7 53 -19.6 -3.3
13:35 1025 30.27 854 25.22 -11.9 10.6 53 -19.7 -3.5
13:40 1025 30.27 854 25.22 -11.6 11.2 52 -19.5 -3.1
13:45 1025 30.27 854 25.22 -11.1 12 48 -20.1 -4.1
13:50 1025 30.27 854 25.22 -11.1 12.1 48 -20 -3.9
13:55 1025 30.27 854 25.22 -11.2 11.8 49 -19.9 -3.9
14:00 1025 30.27 854 25.22 -11.1 12.1 48 -19.9 -3.9
14:05 1025 30.27 854 25.22 -11.3 11.7 51 -19.6 -3.2
14:10 1025 30.27 854 25.22 -11.5 11.3 50 -19.9 -3.8
14:15 1025 30.27 854 25.22 -11.8 10.8 51 -20 -4
14:20 1025 30.27 854 25.22 -11.7 10.9 52 -19.7 -3.4
14:25 1025 30.27 854 25.22 -11.5 11.3 50 -20 -3.9
14:30 1025 30.27 854 25.22 -11.7 11 48 -20.5 -5
14:35 1025 30.27 854 25.22 -11.5 11.4 49 -20.2 -4.4
14:40 1025 30.27 854 25.22 -11.5 11.4 52 -19.5 -3.1
14:45 1025 30.27 854 25.22 -11.5 11.4 51 -19.8 -3.7
14:50 1025 30.27 854 25.22 -11.6 11.2 52 -19.5 -3.2
14:55 1025 30.27 854 25.22 -11.6 11.1 53 -19.5 -3.1
15:00 1025 30.27 854 25.22 -12.5 9.4 55 -19.7 -3.5
15:05 1025 30.27 854 25.22 -12.2 10 52 -20.1 -4.2
15:10 1025 30.27 854 25.22 -11.8 10.7 52 -19.8 -3.6
15:15 1025 30.27 854 25.22 -11.6 11.1 50 -20.1 -4.2
15:20 1025 30.27 854 25.22 -12.9 8.8 55 -20.2 -4.3
15:25 1025 30.27 854 25.22 -12.4 9.6 51 -20.6 -5.1
15:30 1025 30.27 854 25.22 -12 10.4 52 -20 -3.9
15:35 1025 30.27 854 25.22 -12.1 10.2 53 -19.9 -3.8
15:40 1025 30.27 854 25.22 -12.6 9.3 53 -20.2 -4.4
15:45 1025 30.27 854 25.22 -12 10.3 51 -20.2 -4.3
15:50 1025 30.27 854 25.22 -12.1 10.2 52 -20.1 -4.1
15:55 1025 30.27 854 25.22 -12.6 9.3 54 -20.2 -4.3
16:00 1025 30.27 854 25.22 -12.2 10 51 -20.5 -4.9
16:05 1025 30.27 854 25.22 -12.1 10.2 50 -20.4 -4.8
16:10 1025 30.27 854 25.22 -12.1 10.3 50 -20.6 -5.1
16:15 1025 30.27 854 25.22 -11.9 10.6 50 -20.5 -4.8
16:20 1025 30.27 854 25.22 -11.6 11 49 -20.4 -4.7
16:25 1025 30.27 854 25.22 -11.4 11.4 49 -20.2 -4.4
16:30 1025 30.27 854 25.22 -11.6 11 49 -20.4 -4.8
16:35 1025 30.27 854 25.22 -11.5 11.2 48 -20.4 -4.7
16:40 1025 30.27 854 25.22 -11.7 11 49 -20.5 -4.8
16:45 1025 30.27 854 25.22 -11.8 10.7 49 -20.5 -5
16:50 1025 30.27 854 25.22 -11.9 10.5 50 -20.4 -4.8
16:55 1025 30.27 854 25.22 -12.1 10.3 50 -20.5 -4.8
17:00 1025 30.27 854 25.22 -12.1 10.3 51 -20.3 -4.5
17:05 1025 30.27 854 25.22 -12.2 10 51 -20.5 -4.8
17:10 1025 30.27 854 25.22 -12.3 9.8 52 -20.2 -4.4
17:15 1025 30.27 854 25.22 -12.6 9.2 53 -20.4 -4.8
17:20 1025 30.27 854 25.22 -13.1 8.4 56 -20.2 -4.4
17:25 1025 30.27 854 25.22 -12.9 8.8 54 -20.5 -4.9
17:30 1025 30.27 854 25.22 -12.9 8.8 54 -20.4 -4.8
17:35 1025 30.27 854 25.22 -13.1 8.4 55 -20.3 -4.6
17:40 1025 30.27 854 25.22 -13.1 8.5 55 -20.2 -4.4
17:45 1025 30.27 854 25.22 -13.1 8.4 55 -20.3 -4.6
17:50 1025 30.27 854 25.22 -13.7 7.4 58 -20.2 -4.3
17:55 1025 30.27 854 25.22 -14.2 6.5 60 -20.4 -4.7
18:00 1025 30.27 854 25.22 -14.4 6.2 61 -20.4 -4.6
18:05 1025 30.27 854 25.22 -14.5 6 61 -20.3 -4.6
18:10 1025 30.27 854 25.22 -14.5 6 62 -20.2 -4.3
18:15 1025 30.27 854 25.22 -14.5 5.8 62 -20.4 -4.6
18:20 1025 30.27 854 25.22 -14.6 5.7 63 -20.2 -4.4
18:25 1025 30.27 854 25.22 -14.8 5.4 65 -20.1 -4.1
18:30 1025 30.27 854 25.22 -15.3 4.5 64 -20.6 -5.1
18:35 1025 30.27 854 25.22 -15.8 3.6 67 -20.6 -5
18:40 1025 30.27 855 25.25 -15.6 3.8 66 -20.6 -5.1
18:45 1025 30.27 855 25.25 -15.5 4.2 67 -20.4 -4.7
18:50 1025 30.27 855 25.25 -15.8 3.6 69 -20.3 -4.6
18:55 1025 30.27 855 25.25 -16 3.2 70 -20.3 -4.5
19:00 1025 30.27 855 25.25 -16.2 2.8 72 -20.2 -4.4
19:05 1025 30.27 855 25.25 -17.2 1.1 75 -20.6 -5.1
19:10 1025 30.27 855 25.25 -17.6 0.3 76 -20.9 -5.6
19:15 1025 30.27 855 25.25 -17.7 0.1 76 -21 -5.8
19:20 1025 30.27 855 25.25 -17.9 -0.3 78 -20.8 -5.5
19:25 1025 30.27 855 25.25 -17.6 0.3 76 -20.9 -5.7
19:30 1026 30.3 855 25.25 -17.4 0.7 75 -20.8 -5.4
19:35 1026 30.3 855 25.25 -17.5 0.6 78 -20.4 -4.7
19:40 1026 30.3 855 25.25 -17.3 0.8 74 -21 -5.7
19:45 1026 30.3 855 25.25 -17.3 0.9 74 -20.9 -5.7
19:50 1026 30.3 855 25.25 -17.1 1.2 73 -20.8 -5.4
19:55 1026 30.3 855 25.25 -17.1 1.2 73 -20.9 -5.7
20:00 1026 30.3 855 25.25 -17.2 1 74 -20.9 -5.6
20:05 1026 30.3 855 25.25 -17.2 1 73 -21.1 -5.9
20:10 1026 30.3 855 25.25 -17.3 1 74 -20.9 -5.6
20:15 1026 30.3 855 25.25 -17.3 0.9 75 -20.8 -5.4
20:20 1026 30.3 855 25.25 -17.5 0.5 75 -20.8 -5.5
20:25 1026 30.3 855 25.25 -17.6 0.2 74 -21.2 -6.1
20:30 1026 30.3 855 25.25 -17.7 0.2 75 -21.2 -6.1
20:35 1026 30.3 855 25.25 -17.5 0.4 74 -21.1 -6
20:40 1026 30.3 855 25.25 -17.5 0.5 74 -21.1 -5.9
20:45 1026 30.3 855 25.25 -17.7 0.1 73 -21.5 -6.7
20:50 1026 30.3 855 25.25 -18.3 -1 76 -21.6 -7
20:55 1026 30.3 855 25.25 -18.2 -0.8 76 -21.4 -6.5
21:00 1026 30.3 855 25.25 -18 -0.4 75 -21.4 -6.6
21:05 1026 30.3 855 25.25 -17.9 -0.2 73 -21.6 -6.9
21:10 1026 30.3 855 25.25 -18.4 -1 76 -21.6 -6.9
21:15 1026 30.3 855 25.25 -18.9 -2 78 -21.8 -7.3
21:20 1026 30.3 855 25.25 -19.1 -2.3 78 -21.9 -7.5
21:25 1026 30.3 855 25.25 -18.8 -1.8 78 -21.7 -7.1
21:30 1026 30.3 855 25.25 -18.1 -0.5 78 -21.1 -5.9
21:35 1026 30.3 855 25.25 -17.5 0.5 78 -20.5 -5
21:40 1026 30.3 855 25.25 -17.3 0.9 74 -21 -5.7
21:45 1026 30.3 855 25.25 -17 1.5 72 -20.9 -5.6
21:50 1026 30.3 855 25.25 -17 1.5 71 -21 -5.8
21:55 1026 30.3 855 25.25 -17.3 0.9 71 -21.4 -6.5
22:00 1026 30.3 855 25.25 -18 -0.4 74 -21.6 -6.9
22:05 1026 30.3 855 25.25 -18.3 -0.9 77 -21.4 -6.5
22:10 1026 30.3 855 25.25 -17.9 -0.2 76 -21.1 -6.1
22:15 1026 30.3 855 25.25 -17.6 0.3 74 -21.3 -6.3
22:20 1026 30.3 855 25.25 -17.7 0.1 75 -21.1 -6
22:25 1026 30.3 855 25.25 -17.8 -0.1 80 -20.5 -4.9
22:30 1026 30.3 855 25.25 -17.4 0.7 80 -20 -4
22:35 1026 30.3 855 25.25 -17 1.5 74 -20.5 -4.9
22:40 1026 30.3 855 25.25 -16.8 1.7 71 -20.9 -5.6
22:45 1026 30.3 855 25.25 -16.9 1.6 70 -21.2 -6.1
22:50 1026 30.3 855 25.25 -16.9 1.6 70 -21.2 -6.1
22:55 1026 30.3 855 25.25 -16.7 2 68 -21.2 -6.2
23:00 1026 30.3 855 25.25 -16.6 2.1 69 -21 -5.9
23:05 1026 30.3 855 25.25 -16.5 2.2 69 -21 -5.8
23:10 1026 30.3 855 25.25 -17.1 1.3 72 -21 -5.8
23:15 1026 30.3 855 25.25 -17.5 0.6 74 -21 -5.8
23:20 1026 30.3 855 25.25 -17.2 1.1 72 -21.1 -6
23:25 1026 30.3 855 25.25 -16.7 1.9 70 -21.1 -5.9
23:30 1026 30.3 855 25.25 -16.9 1.7 71 -20.9 -5.6
23:35 1026 30.3 855 25.25 -16.8 1.9 70 -21 -5.9
23:40 1026 30.3 855 25.25 -16.7 1.9 71 -20.9 -5.6
23:45 1026 30.3 855 25.25 -16.8 1.7 70 -21.1 -5.9
23:50 1026 30.3 855 25.25 -17.3 0.9 73 -21.1 -6
23:55 1025 30.27 855 25.25 -17.3 0.9 72 -21.3 -6.3
24:00 1025 30.27 855 25.25 -17 1.3 71 -21.1 -6